Moore, Allison
United StatesWomanBorn 19692007 – 2025Runner id 62108
Events
64
2007 – 2025
Best pace
10.992
km/h · 2007
Best finish
4th
of 80 · 2010
Distance raced
5,478
km · splits not double-counted
Pace over time
km/h · higher is faster
Pace over time: 64 races from 2007 to 2025, ranging from 3.55 to 12.38 kilometres per hour, where higher is faster. A second, age-graded series is drawn above it; the gap between the two is the age credit.
- Actual pace
- Age-graded pace
Results
| Date | Event | Distance | Result | Pace km/h | Placing |
|---|---|---|---|---|---|
| 2007-04-22 | 50km | 4:32:56 h | 10.992 | 13/63 | |
| 2007-06-09 | Lake Youngs UltraUnited States | 28.8mi | 4:18:00 h | 10.779 | 9/62 |
| 2008-03-15 | Chuckanut 50KUnited States | 50km | 5:48:44 h | 8.603 | 105/294 |
| 2008-05-25 | 50km | 5:56:21 h | 8.419 | 28/72 | |
| 2008-07-26 | 50mi | 10:38:44 h | 7.559 | 108/202 | |
| 2008-09-13 | Cle Elum Ridge 50kUnited States | 50km | 6:27:00 h | 7.752 | 35/80 |
| 2009-02-07 | Orcas Island 50kUnited States | 50km | 6:20:17 h | 7.889 | 35/106 |
| 2009-03-21 | Chuckanut 50KUnited States | 50km | 5:32:32 h | 9.022 | 84/270 |
| 2009-03-28 | 50km | 5:08:00 h | 9.740 | 8/19 | |
| 2009-05-02 | 100km | 11:55:26 h | 8.387 | 77/260 | |
| 2009-05-16 | Watershed Preserve 12 Hr Trail RaceUnited States | 12h | 51.901 km | 4.325 | 58/66 |
| 2009-06-06 | 50mi | 10:18:42 h | 7.804 | 25/62 | |
| 2009-06-13 | Lake Youngs UltraUnited States | 28.8mi | 4:21:33 h | 10.633 | 19/58 |
| 2009-08-29 | 100mi | 25:13:08 h | 6.382 | 29/96 | |
| 2009-09-12 | 50km | 7:12:53 h | 6.930 | 19/60 | |
| 2009-10-31 | 12h | 86.968 km | 7.247 | 2/33 | |
| 2010-01-09 | 100km | 12:15:45 h | 8.155 | 22/109 | |
| 2010-02-06 | 50km | 6:21:06 h | 7.872 | 53/123 | |
| 2010-03-20 | 24h | 167.371 km | 6.974 | 7/73 | |
| 2010-05-15 | 12h | 107.278 km | 8.940 | 4/80 | |
| 2010-05-30 | Forest Park 50KUnited States | 50km | 5:50:06 h | 8.569 | 32/86 |
| 2010-07-17 | Soaring Eagle 50 Km Trail RunUnited States | 50km | 5:53:29 h | 8.487 | 8/17 |
| 2010-07-31 | 50mi | 9:57:55 h | 8.075 | 74/194 | |
| 2010-09-18 | 100mi | 28:25:12 h | 5.663 | 44/72 | |
| 2010-11-27 | Ghost of Seattle MarathonUnited States | 50km | 4:49:41 h | 10.356 | 7/16 |
| 2011-02-05 | 50km | 6:33:16 h | 7.628 | 39/129 | |
| 2011-03-19 | 50km | 5:51:12 h | 8.542 | 133/298 | |
| 2011-04-30 | 50mi | 9:55:38 h | 8.106 | 45/82 | |
| 2011-06-17 | 100mi | 32:15:45 h | 4.988 | 73/110 | |
| 2011-12-10 | 50km | 5:22:04 h | 9.315 | 17/63 | |
| 2012-02-04 | 50km | 6:17:46 h | 7.941 | 46/171 | |
| 2012-03-31 | 100mi | 18:45:02 h | 8.583 | 12/150 | |
| 2012-05-20 | 50mi | 8:41:43 h | 9.254 | 19/57 | |
| 2012-08-25 | 100mi | 28:50:33 h | 5.580 | 58/98 | |
| 2013-01-13 | Bridle Trails Winter Running FestivalUnited States | 50km | 4:45:31 h | 10.507 | 14/55 |
| 2013-03-30 | 50km | 5:38:12 h | 8.870 | 134/281 | |
| 2013-06-29 | 50km | 6:10:37 h | 8.095 | 11/45 | |
| 2013-08-17 | 100km | 13:27:56 h | 7.426 | 41/108 | |
| 2013-09-27 | 100mi | 34:39:00 h | 4.645 | 143/174 | |
| 2013-11-02 | 12h | 91.314 km | 7.610 | 1/16 | |
| 2014-01-18 | 34mi | 6:00:54 h | 9.097 | 15/56 | |
| 2014-03-28 | 100mi | 25:48:00 h | 6.238 | 11/42 | |
| 2014-04-26 | 50mi | 9:41:53 h | 8.297 | 27/76 | |
| 2014-05-10 | 50km | 6:23:38 h | 7.820 | 11/44 | |
| 2017-05-20 | 50km | 5:54:27 h | 8.464 | 52/202 | |
| 2017-07-08 | 55km | 8:58:05 h | 6.133 | 51/165 | |
| 2019-01-19 | 50km | 5:39:04 h | 8.848 | 46/111 | |
| 2019-04-27 | 50mi | 9:48:58 h | 8.197 | 6/47 | |
| 2019-06-08 | 100km | 12:38:00 h | 7.916 | 1/4 | |
| 2019-10-26 | 12h | 85.601 km | 7.133 | 2/17 |
Showing 1–50 of 64